Time;durP1;ratioP1;P1;durP2;ratioP2;P2;SDS_P1;SDS_P2;PMS_P1;PMS_P2;Temp;Humidity;BMP_temperature;BMP_pressure;BME280_temperature;BME280_humidity;BME280_pressure;Samples;Min_cycle;Max_cycle;Signal;HPM_P1;HPM_P2
2021/07/23 00:02:05;;;;;;;4.20;3.53;;;;;;;23.76;43.34;97522.67;126914;1092;62837;-51
2021/07/23 00:04:32;;;;;;;4.60;3.60;;;;;;;23.76;43.50;97515.48;126882;1092;62635;-50
2021/07/23 00:06:59;;;;;;;4.30;3.60;;;;;;;23.75;43.51;97516.48;126922;1092;62630;-48
2021/07/23 00:09:26;;;;;;;4.93;3.57;;;;;;;23.73;43.80;97517.71;126851;1092;62626;-49
2021/07/23 00:11:53;;;;;;;4.00;3.60;;;;;;;23.72;43.80;97510.73;126858;1092;62632;-48
2021/07/23 00:14:20;;;;;;;3.93;3.40;;;;;;;23.73;43.78;97515.05;126881;1092;62697;-48
2021/07/23 00:16:47;;;;;;;4.77;3.77;;;;;;;23.73;43.63;97513.20;126887;1092;62683;-50
2021/07/23 00:19:14;;;;;;;5.17;3.70;;;;;;;23.72;43.64;97522.23;126838;1092;62582;-49
2021/07/23 00:21:41;;;;;;;4.30;3.40;;;;;;;23.74;43.89;97520.18;126890;1092;62620;-49
2021/07/23 00:24:08;;;;;;;4.40;3.83;;;;;;;23.75;43.66;97521.83;126857;1092;62626;-50
2021/07/23 00:26:35;;;;;;;4.87;3.70;;;;;;;23.74;43.64;97522.84;126918;1092;63059;-50
2021/07/23 00:29:02;;;;;;;5.03;3.83;;;;;;;23.73;43.60;97518.53;126853;1092;62617;-49
2021/07/23 00:31:30;;;;;;;4.60;3.70;;;;;;;23.74;43.69;97514.84;126913;1092;62609;-48
2021/07/23 00:33:57;;;;;;;4.13;3.73;;;;;;;23.72;43.82;97516.89;126881;1092;62636;-47
2021/07/23 00:36:24;;;;;;;4.90;4.20;;;;;;;23.71;43.65;97519.73;126826;1092;62605;-49
2021/07/23 00:38:51;;;;;;;4.67;3.50;;;;;;;23.69;43.82;97517.27;126919;1092;62765;-51
2021/07/23 00:41:18;;;;;;;5.00;3.87;;;;;;;23.68;43.72;97510.28;126905;1091;63022;-49
2021/07/23 00:43:45;;;;;;;4.27;3.87;;;;;;;23.68;43.66;97526.30;126887;1092;62589;-50
2021/07/23 00:46:12;;;;;;;5.67;4.00;;;;;;;23.67;43.98;97518.48;126913;1092;62617;-49
2021/07/23 00:48:39;;;;;;;4.27;3.73;;;;;;;23.67;43.89;97516.64;126865;1092;62657;-50
2021/07/23 00:51:06;;;;;;;4.43;3.53;;;;;;;23.65;43.84;97515.98;126953;1092;62750;-51
2021/07/23 00:53:33;;;;;;;4.10;3.70;;;;;;;23.63;43.69;97513.49;126893;1092;62596;-49
2021/07/23 00:56:00;;;;;;;4.10;3.40;;;;;;;23.63;43.84;97507.33;126876;1092;62627;-49
2021/07/23 00:58:29;;;;;;;5.00;3.80;;;;;;;23.62;43.90;97513.70;126869;1092;62651;-51
2021/07/23 01:00:58;;;;;;;4.53;3.90;;;;;;;23.62;43.92;97514.52;126941;1095;63128;-50
2021/07/23 01:03:25;;;;;;;4.90;3.77;;;;;;;23.62;43.84;97511.03;126898;1092;62632;-50
2021/07/23 01:05:52;;;;;;;5.40;4.00;;;;;;;23.62;43.79;97505.69;126928;1092;62658;-48
2021/07/23 01:08:20;;;;;;;4.73;3.80;;;;;;;23.62;43.84;97508.36;126884;1092;62633;-48
2021/07/23 01:10:49;;;;;;;;;;;;;;;23.62;44.22;97500.36;126953;1092;62626;-51
2021/07/23 01:13:16;;;;;;;4.67;3.90;;;;;;;23.62;43.69;97508.36;126871;1092;62721;-51
2021/07/23 01:15:43;;;;;;;3.55;3.25;;;;;;;23.60;43.74;97502.38;126879;1092;63023;-51
2021/07/23 01:18:10;;;;;;;4.73;3.60;;;;;;;23.60;43.80;97505.86;126909;1092;62608;-50
2021/07/23 01:20:37;;;;;;;4.07;3.67;;;;;;;23.57;43.77;97503.59;126876;1092;62667;-50
2021/07/23 01:23:04;;;;;;;4.27;3.40;;;;;;;;;;126892;1092;62610;-52
2021/07/23 01:25:31;;;;;;;3.80;3.40;;;;;;;23.52;43.83;97499.83;126903;1092;62649;-51
2021/07/23 01:27:58;;;;;;;5.33;3.60;;;;;;;23.49;44.08;97497.56;126816;1092;62767;-50
2021/07/23 01:30:25;;;;;;;4.97;3.33;;;;;;;23.47;43.93;97494.24;126886;1092;62571;-50
2021/07/23 01:32:53;;;;;;;3.95;3.55;;;;;;;23.45;44.18;97498.95;126888;1092;62612;-49
2021/07/23 01:35:20;;;;;;;4.60;3.57;;;;;;;23.45;44.10;97501.63;126883;1092;62680;-50
2021/07/23 01:37:48;;;;;;;4.67;3.70;;;;;;;23.45;44.07;97496.29;126553;1092;62687;-52
2021/07/23 01:40:15;;;;;;;4.27;3.70;;;;;;;23.46;44.28;97489.93;126934;1092;62762;-51
2021/07/23 01:42:42;;;;;;;4.20;3.70;;;;;;;23.46;44.48;97496.09;126866;1095;62642;-55
2021/07/23 01:45:10;;;;;;;4.37;3.63;;;;;;;23.47;44.35;97491.58;126952;1092;62632;-53
2021/07/23 01:47:37;;;;;;;4.07;3.57;;;;;;;23.47;44.36;97488.91;126946;1092;62553;-50
2021/07/23 01:50:05;;;;;;;5.00;3.67;;;;;;;23.47;44.23;97491.58;126887;1092;62565;-50
2021/07/23 01:52:33;;;;;;;4.27;3.67;;;;;;;23.46;44.36;97489.93;126960;1092;62618;-50
2021/07/23 01:55:00;;;;;;;4.33;3.87;;;;;;;23.46;44.37;97489.93;126905;1092;62571;-50
2021/07/23 01:57:27;;;;;;;4.90;3.80;;;;;;;23.45;44.42;97485.63;126895;1092;62616;-54
2021/07/23 01:59:54;;;;;;;4.23;3.57;;;;;;;23.46;44.38;97487.27;126986;1092;62623;-58
2021/07/23 02:02:21;;;;;;;4.77;3.63;;;;;;;23.45;44.33;97493.63;126925;1092;62625;-54
2021/07/23 02:04:48;;;;;;;4.40;3.93;;;;;;;23.44;44.48;97487.46;126919;1092;62625;-57
2021/07/23 02:07:15;;;;;;;4.13;3.60;;;;;;;23.44;44.19;97487.46;126899;1092;63089;-58
2021/07/23 02:09:42;;;;;;;4.57;3.93;;;;;;;23.44;44.52;97486.64;126895;1091;62624;-54
2021/07/23 02:12:09;;;;;;;4.43;3.70;;;;;;;23.44;44.40;97486.64;126864;1092;62626;-51
2021/07/23 02:14:37;;;;;;;4.43;3.60;;;;;;;23.45;44.49;97490.95;126906;1092;63012;-53
2021/07/23 02:17:04;;;;;;;4.97;3.77;;;;;;;23.44;44.29;97487.46;126920;1092;62789;-50
2021/07/23 02:19:31;;;;;;;4.73;3.83;;;;;;;23.46;44.19;97479.26;126870;1092;62620;-50
2021/07/23 02:21:58;;;;;;;4.17;3.47;;;;;;;23.47;44.41;97488.91;126925;1092;62623;-51
2021/07/23 02:24:25;;;;;;;4.43;3.80;;;;;;;23.46;44.43;97485.42;126833;1092;62636;-52
2021/07/23 02:26:53;;;;;;;5.37;3.87;;;;;;;23.46;44.50;97490.75;126947;1092;62633;-54
2021/07/23 02:29:20;;;;;;;4.47;3.90;;;;;;;23.48;44.53;97480.73;127027;1092;62620;-54
2021/07/23 02:31:48;;;;;;;4.07;3.60;;;;;;;23.48;44.57;97477.22;126995;1095;62633;-55
2021/07/23 02:34:15;;;;;;;4.43;3.80;;;;;;;23.49;44.46;97481.55;126965;1092;62571;-52
2021/07/23 02:36:42;;;;;;;4.03;3.63;;;;;;;23.49;44.35;97481.55;126877;1092;62663;-55
2021/07/23 02:39:09;;;;;;;4.40;3.60;;;;;;;23.49;44.47;97478.89;126846;1092;62626;-51
2021/07/23 02:41:36;;;;;;;4.37;3.63;;;;;;;23.48;44.44;97483.41;126889;1092;62754;-51
2021/07/23 02:44:04;;;;;;;4.63;3.80;;;;;;;23.48;44.43;97479.88;126908;1092;62625;-51
2021/07/23 02:46:31;;;;;;;4.10;3.60;;;;;;;23.49;44.27;97484.22;126913;1092;62689;-50
2021/07/23 02:48:58;;;;;;;4.70;3.60;;;;;;;23.47;44.43;97478.23;126886;1092;62588;-51
2021/07/23 02:51:25;;;;;;;5.07;3.90;;;;;;;23.46;44.31;97477.41;126855;1092;62661;-49
2021/07/23 02:53:55;;;;;;;4.23;3.77;;;;;;;23.45;44.31;97478.44;126860;1092;62799;-49
2021/07/23 02:56:41;;;;;;;4.20;3.73;;;;;;;23.44;44.14;97491.98;126885;1092;62656;-49
2021/07/23 02:59:08;;;;;;;5.13;3.90;;;;;;;23.44;44.18;97486.64;126863;1092;62568;-49
2021/07/23 03:01:37;;;;;;;4.37;3.70;;;;;;;23.44;44.42;97481.30;126941;1092;62735;-52
2021/07/23 03:04:05;;;;;;;4.70;3.55;;;;;;;23.45;44.19;97481.11;126916;1092;62630;-49
2021/07/23 03:06:32;;;;;;;4.33;3.63;;;;;;;23.47;44.54;97487.06;126958;1092;62719;-48
2021/07/23 03:08:59;;;;;;;4.07;3.60;;;;;;;23.49;44.34;97479.71;126871;1092;62858;-49
2021/07/23 03:11:26;;;;;;;4.30;3.90;;;;;;;23.49;44.62;97482.38;126908;1092;62683;-49
2021/07/23 03:13:53;;;;;;;4.80;3.60;;;;;;;23.50;44.43;97478.69;126926;1092;62677;-52
2021/07/23 03:16:21;;;;;;;3.97;3.40;;;;;;;23.50;44.41;97478.69;126948;1092;62625;-51
2021/07/23 03:18:48;;;;;;;4.47;3.37;;;;;;;23.48;44.41;97480.73;126874;1092;62700;-52
2021/07/23 03:21:20;;;;;;;3.90;3.17;;;;;;;23.44;44.32;97482.13;126887;1092;62663;-48
2021/07/23 03:23:47;;;;;;;4.30;3.43;;;;;;;23.42;44.32;97477.98;126848;1095;62575;-51
2021/07/23 03:26:14;;;;;;;3.43;3.10;;;;;;;23.38;44.47;97481.02;126924;1092;62608;-51
2021/07/23 03:28:42;;;;;;;4.00;3.40;;;;;;;23.39;44.29;97484.55;126861;1092;62617;-50
2021/07/23 03:31:14;;;;;;;3.90;3.30;;;;;;;23.38;44.38;97478.36;126895;1092;62693;-49
2021/07/23 03:33:41;;;;;;;3.77;3.37;;;;;;;23.40;44.15;97480.03;126861;1092;62708;-50
2021/07/23 03:36:08;;;;;;;5.20;3.90;;;;;;;23.40;44.20;97480.03;126943;1095;62620;-51
2021/07/23 03:38:54;;;;;;;4.37;3.40;;;;;;;23.41;44.34;97487.02;126933;1092;62605;-48
2021/07/23 03:41:22;;;;;;;4.17;3.43;;;;;;;23.44;44.46;97483.97;126870;1092;62632;-49
2021/07/23 03:43:49;;;;;;;3.33;3.03;;;;;;;23.47;44.36;97484.39;126897;1092;62630;-49
2021/07/23 03:46:16;;;;;;;5.07;3.33;;;;;;;23.57;44.41;97497.41;126855;1092;62683;-48
2021/07/23 03:48:43;;;;;;;4.20;3.70;;;;;;;23.63;44.10;97493.99;126895;1092;62593;-53
2021/07/23 03:51:10;;;;;;;4.20;3.47;;;;;;;23.69;44.37;97487.91;126875;1092;62642;-49
2021/07/23 03:53:37;;;;;;;4.23;3.43;;;;;;;23.77;44.14;97487.78;126867;1092;62626;-48
2021/07/23 03:56:07;;;;;;;4.93;3.33;;;;;;;23.84;43.98;97488.64;126990;1092;62966;-54
2021/07/23 03:58:36;;;;;;;4.30;3.33;;;;;;;23.89;44.11;97490.73;126977;1092;62629;-50
2021/07/23 04:01:05;;;;;;;3.60;3.03;;;;;;;23.92;44.14;97495.69;127033;1092;63112;-53
2021/07/23 04:03:33;;;;;;;;;;;;;;;23.97;44.29;97493.26;127056;1092;62614;-49
2021/07/23 04:06:02;;;;;;;;;;;;;;;24.05;44.10;97494.97;127088;1092;62645;-49
2021/07/23 04:08:29;;;;;;;4.17;3.50;;;;;;;24.09;43.69;97494.38;127034;1092;62772;-57
2021/07/23 04:10:56;;;;;;;4.47;3.57;;;;;;;24.17;43.41;97496.06;127046;1092;62643;-56
2021/07/23 04:13:23;;;;;;;4.10;3.57;;;;;;;24.28;43.43;97498.20;126919;1092;62628;-48
2021/07/23 04:15:50;;;;;;;4.00;3.37;;;;;;;24.44;43.29;97501.60;127032;1092;62587;-49
2021/07/23 04:18:18;;;;;;;7.00;4.73;;;;;;;24.61;42.49;97495.73;127005;1092;62638;-62
2021/07/23 04:20:45;;;;;;;6.67;4.90;;;;;;;24.63;41.61;97492.86;127000;1092;62641;-63
2021/07/23 04:23:13;;;;;;;5.40;4.43;;;;;;;24.47;40.89;97495.88;127047;1092;62684;-62
2021/07/23 04:25:58;;;;;;;5.53;4.40;;;;;;;24.23;40.92;97491.80;126928;1095;62611;-62
2021/07/23 04:28:25;;;;;;;5.43;4.20;;;;;;;23.99;41.11;97496.58;126968;1092;62633;-63
2021/07/23 04:30:53;;;;;;;6.73;4.67;;;;;;;23.78;41.08;97500.09;126857;1092;62719;-61
2021/07/23 04:33:20;;;;;;;6.17;4.70;;;;;;;23.65;41.14;97489.31;126885;1092;62568;-61
2021/07/23 04:35:47;;;;;;;7.20;4.47;;;;;;;23.68;41.20;97491.60;126906;1092;62678;-61
2021/07/23 04:38:14;;;;;;;6.70;4.53;;;;;;;23.78;40.68;97485.93;126905;1092;62627;-61
2021/07/23 04:40:41;;;;;;;5.75;4.85;;;;;;;23.69;40.53;97490.58;126896;1092;62645;-62
2021/07/23 04:43:08;;;;;;;5.23;4.40;;;;;;;23.59;40.96;97495.39;126838;1092;62739;-61
2021/07/23 04:45:35;;;;;;;6.10;4.50;;;;;;;23.56;40.98;97496.59;126934;1092;62610;-62
2021/07/23 04:48:03;;;;;;;6.00;5.13;;;;;;;23.51;40.95;97482.17;126878;1092;62668;-62
2021/07/23 04:50:31;;;;;;;5.27;4.30;;;;;;;23.46;41.01;97484.59;126963;1092;62608;-62
2021/07/23 04:52:59;;;;;;;5.73;4.90;;;;;;;23.39;41.33;97481.88;126917;1092;62684;-62
2021/07/23 04:55:27;;;;;;;6.30;4.23;;;;;;;23.43;41.11;97479.63;126871;1095;63026;-62
2021/07/23 04:57:54;;;;;;;5.80;4.80;;;;;;;23.48;41.24;97479.88;126882;1092;62665;-61
2021/07/23 05:00:21;;;;;;;5.37;4.17;;;;;;;23.60;40.93;97481.84;126881;1092;62633;-63
2021/07/23 05:02:57;;;;;;;5.20;4.20;;;;;;;23.79;41.01;97477.72;126909;1092;62636;-61
2021/07/23 05:05:24;;;;;;;4.80;3.80;;;;;;;24.06;41.40;97481.41;126999;1092;62700;-62
2021/07/23 05:07:51;;;;;;;6.40;3.97;;;;;;;24.35;41.18;97483.02;126920;1092;62660;-60
2021/07/23 05:10:18;;;;;;;6.50;4.00;;;;;;;24.69;41.12;97485.92;126980;1092;62783;-58
2021/07/23 05:12:45;;;;;;;5.07;3.60;;;;;;;25.01;41.06;97484.39;126904;1092;62618;-62
2021/07/23 05:15:12;;;;;;;5.17;3.77;;;;;;;25.35;40.71;97484.28;126919;1092;62620;-63
2021/07/23 05:17:40;;;;;;;4.60;3.70;;;;;;;25.71;40.46;97482.27;126951;1092;62628;-63
2021/07/23 05:20:07;;;;;;;4.63;3.40;;;;;;;26.05;39.93;97481.23;126888;1092;62653;-62
2021/07/23 05:22:36;;;;;;;5.10;3.80;;;;;;;26.40;39.70;97487.98;127029;1092;62633;-61
2021/07/23 05:25:03;;;;;;;4.27;3.80;;;;;;;26.76;38.97;97483.98;126913;1092;62608;-62
2021/07/23 05:27:30;;;;;;;4.43;3.80;;;;;;;27.10;38.48;97490.86;126953;1092;62617;-62
2021/07/23 05:30:01;;;;;;;4.83;3.60;;;;;;;27.57;37.93;97485.20;126912;1092;62625;-62
2021/07/23 05:32:28;;;;;;;5.53;3.97;;;;;;;28.32;37.21;97486.00;126919;1092;62636;-62
2021/07/23 05:34:55;;;;;;;6.53;3.87;;;;;;;29.17;35.99;97496.03;126971;1092;62619;-62
2021/07/23 05:37:22;;;;;;;5.15;4.30;;;;;;;29.87;34.94;97492.72;126950;1092;62623;-63
2021/07/23 05:39:49;;;;;;;5.27;3.80;;;;;;;30.31;34.35;97483.25;126952;1092;62643;-62
2021/07/23 05:42:16;;;;;;;5.30;3.73;;;;;;;30.64;33.73;97488.00;126932;1092;62623;-63
2021/07/23 05:44:43;;;;;;;4.30;3.57;;;;;;;31.01;33.14;97494.98;126817;1092;62601;-63
2021/07/23 05:47:10;;;;;;;4.60;3.67;;;;;;;31.42;32.59;97491.19;126873;1092;62869;-63
2021/07/23 05:49:37;;;;;;;4.45;3.55;;;;;;;32.06;31.86;97496.34;126869;1092;62619;-62
2021/07/23 05:52:06;;;;;;;4.65;3.30;;;;;;;32.75;30.89;97494.09;126828;1092;61997;-61
2021/07/23 05:54:33;;;;;;;4.17;3.47;;;;;;;33.40;30.01;97492.40;126981;1092;62606;-61
2021/07/23 05:57:00;;;;;;;4.63;3.33;;;;;;;33.99;29.18;97491.62;126881;1092;62611;-63
2021/07/23 05:59:27;;;;;;;4.10;3.40;;;;;;;34.55;28.54;97497.42;126907;1092;62622;-62
2021/07/23 06:01:54;;;;;;;5.53;3.70;;;;;;;35.06;27.57;97494.95;126849;1092;62632;-63
2021/07/23 06:04:21;;;;;;;3.70;3.30;;;;;;;35.55;27.11;97497.27;126952;1092;63070;-63
2021/07/23 06:06:49;;;;;;;5.17;3.50;;;;;;;36.01;26.92;97500.00;126993;1092;62619;-61
2021/07/23 06:09:16;;;;;;;4.37;3.10;;;;;;;36.43;26.14;97489.64;127043;1092;62659;-64
2021/07/23 06:11:43;;;;;;;5.15;3.10;;;;;;;36.85;25.57;97491.13;126932;1092;62742;-62
2021/07/23 06:14:10;;;;;;;4.90;3.30;;;;;;;37.24;25.24;97493.13;126999;1092;62620;-61
2021/07/23 06:16:43;;;;;;;4.73;3.20;;;;;;;37.60;24.86;97499.20;126930;1092;62603;-62
2021/07/23 06:19:10;;;;;;;4.17;3.10;;;;;;;37.96;24.57;97501.67;127008;1092;62564;-62
2021/07/23 06:21:37;;;;;;;4.90;3.50;;;;;;;38.30;24.17;97500.80;126821;1092;62630;-62
2021/07/23 06:24:05;;;;;;;4.35;3.05;;;;;;;38.59;23.82;97498.05;127053;1092;62655;-64
2021/07/23 06:26:32;;;;;;;4.40;3.43;;;;;;;38.86;23.14;97487.38;126966;1092;62699;-61
2021/07/23 06:29:00;;;;;;;4.63;3.33;;;;;;;39.13;22.96;97494.14;127070;1092;62601;-63
2021/07/23 06:31:27;;;;;;;4.00;3.17;;;;;;;39.36;22.49;97501.48;126989;1092;62626;-62
2021/07/23 06:33:54;;;;;;;5.70;3.40;;;;;;;39.59;22.36;97502.52;127006;1092;62689;-62
2021/07/23 06:36:21;;;;;;;3.65;3.00;;;;;;;39.79;22.17;97504.13;127026;1092;62760;-63
2021/07/23 06:38:49;;;;;;;3.70;3.30;;;;;;;40.01;22.02;97497.22;126973;1092;62709;-61
2021/07/23 06:41:16;;;;;;;4.17;3.30;;;;;;;40.18;21.55;97497.50;126954;1092;62565;-62
2021/07/23 06:43:43;;;;;;;3.30;2.73;;;;;;;40.35;21.35;97494.16;126949;1092;62659;-62
2021/07/23 06:46:11;;;;;;;3.50;3.00;;;;;;;40.54;21.19;97497.68;126967;1090;62597;-63
2021/07/23 06:48:38;;;;;;;3.97;3.27;;;;;;;40.75;20.65;97495.33;126950;1092;62642;-62
2021/07/23 06:51:05;;;;;;;3.60;2.90;;;;;;;40.92;20.60;97503.75;126880;1092;62626;-63
2021/07/23 06:53:32;;;;;;;3.90;3.15;;;;;;;41.08;20.32;97496.02;126904;1092;62619;-62
2021/07/23 06:55:59;;;;;;;4.75;2.80;;;;;;;41.25;20.18;97486.36;126892;1092;62999;-62
2021/07/23 06:58:26;;;;;;;3.70;2.85;;;;;;;41.40;20.00;97486.83;126822;1092;62604;-62
2021/07/23 07:00:53;;;;;;;4.03;3.10;;;;;;;41.54;19.79;97486.78;126911;1092;62565;-62
2021/07/23 07:03:21;;;;;;;3.60;2.98;;;;;;;41.66;19.75;97480.75;126860;1090;62735;-62
2021/07/23 07:05:50;;;;;;;3.85;3.00;;;;;;;41.76;19.56;97488.73;126933;1092;62630;-62
2021/07/23 07:08:18;;;;;;;3.60;3.05;;;;;;;41.88;19.33;97486.27;126871;1092;62671;-64
2021/07/23 07:10:45;;;;;;;3.83;2.83;;;;;;;42.01;19.31;97489.23;126877;1092;62639;-63
2021/07/23 07:13:12;;;;;;;3.08;2.78;;;;;;;42.11;19.03;97486.22;126851;1092;62652;-62
2021/07/23 07:15:39;;;;;;;3.95;2.90;;;;;;;42.21;18.96;97486.00;126902;1092;62645;-64
2021/07/23 07:18:06;;;;;;;3.65;2.93;;;;;;;42.29;18.76;97478.91;127013;1092;62625;-64
2021/07/23 07:20:33;;;;;;;3.10;2.60;;;;;;;42.36;18.79;97480.09;126821;1092;62623;-64
2021/07/23 07:23:01;;;;;;;3.55;2.80;;;;;;;42.44;18.44;97473.83;126869;1092;62645;-64
2021/07/23 07:25:31;;;;;;;3.78;2.80;;;;;;;42.55;18.50;97470.78;126932;1092;62626;-65
2021/07/23 07:27:58;;;;;;;3.15;2.58;;;;;;;42.62;18.17;97476.64;126906;1092;62623;-63
2021/07/23 07:30:25;;;;;;;3.08;2.65;;;;;;;42.69;18.20;97468.76;126936;1092;62588;-64
2021/07/23 07:32:52;;;;;;;3.30;2.90;;;;;;;42.78;18.21;97468.78;126927;1092;62611;-65
2021/07/23 07:35:20;;;;;;;3.95;2.60;;;;;;;42.82;18.01;97465.08;126832;1092;62625;-64
2021/07/23 07:37:47;;;;;;;3.05;2.50;;;;;;;42.85;17.79;97469.11;126866;1092;62691;-63
2021/07/23 07:40:14;;;;;;;4.68;2.65;;;;;;;42.90;17.64;97466.23;126925;1092;62665;-64
2021/07/23 07:42:41;;;;;;;3.13;2.80;;;;;;;42.94;17.61;97468.02;126961;1092;62627;-63
2021/07/23 07:45:09;;;;;;;3.55;2.70;;;;;;;42.99;17.57;97464.31;126949;1092;62622;-63
2021/07/23 07:47:36;;;;;;;3.63;2.73;;;;;;;43.02;17.49;97468.34;126939;1092;62700;-63
2021/07/23 07:50:04;;;;;;;3.37;3.00;;;;;;;43.05;17.34;97465.80;126926;1092;62571;-62
2021/07/23 07:52:31;;;;;;;3.93;2.83;;;;;;;43.08;17.32;97470.66;128758;1092;62697;-63
2021/07/23 07:54:58;;;;;;;3.73;2.85;;;;;;;43.12;17.23;97460.61;126895;1090;62608;-63
2021/07/23 07:57:26;;;;;;;4.50;3.00;;;;;;;43.15;17.19;97451.73;126864;1092;62664;-63
2021/07/23 07:59:53;;;;;;;3.30;2.83;;;;;;;43.19;17.10;97452.70;126827;1092;62623;-63
2021/07/23 08:05:06;;;;;;;3.55;2.90;;;;;;;43.27;16.83;97453.85;126840;1092;62588;-63
2021/07/23 08:07:35;;;;;;;3.93;3.00;;;;;;;43.31;16.97;97460.30;127761;1092;62556;-63
2021/07/23 08:10:03;;;;;;;3.20;2.90;;;;;;;43.34;16.86;97458.85;126895;1092;62631;-62
2021/07/23 08:12:33;;;;;;;4.33;2.80;;;;;;;43.36;16.62;97459.32;126855;1092;62603;-63
2021/07/23 08:15:00;;;;;;;3.38;2.80;;;;;;;43.37;16.72;97458.21;126868;1092;62649;-63
2021/07/23 08:17:28;;;;;;;3.08;2.78;;;;;;;43.40;16.61;97460.30;126804;1090;62780;-63
2021/07/23 08:19:59;;;;;;;4.03;3.00;;;;;;;43.42;16.85;97472.61;126862;1092;62626;-63
2021/07/23 08:22:28;;;;;;;3.20;2.73;;;;;;;43.43;16.65;97463.25;126934;1092;62693;-61
2021/07/23 08:24:55;;;;;;;4.40;2.85;;;;;;;43.44;16.67;97464.86;126849;1092;62629;-63
2021/07/23 08:27:22;;;;;;;3.30;2.97;;;;;;;43.45;16.49;97466.50;126888;1095;62664;-63
2021/07/23 08:29:49;;;;;;;3.70;3.03;;;;;;;43.49;16.57;97465.83;126875;1092;62699;-62
2021/07/23 08:32:17;;;;;;;3.73;3.17;;;;;;;43.47;16.76;97460.66;126880;1092;62608;-62
2021/07/23 08:34:44;;;;;;;3.30;2.70;;;;;;;43.45;16.62;97463.75;126822;1092;62620;-63
2021/07/23 08:37:11;;;;;;;3.30;2.60;;;;;;;43.40;16.35;97458.34;126856;1092;62623;-61
2021/07/23 08:39:38;;;;;;;3.90;2.67;;;;;;;43.33;16.48;97463.55;126935;1090;62620;-63
2021/07/23 08:42:25;;;;;;;3.95;3.00;;;;;;;43.23;16.41;97463.88;126825;1092;62693;-62
2021/07/23 08:44:52;;;;;;;3.50;2.90;;;;;;;43.08;16.78;97456.08;126836;1092;62633;-63
2021/07/23 08:47:20;;;;;;;3.88;3.03;;;;;;;42.94;16.93;97454.28;129310;1092;62135;-62
2021/07/23 08:49:47;;;;;;;3.13;2.53;;;;;;;42.83;16.94;97466.69;129314;1092;61261;-61
2021/07/23 08:52:14;;;;;;;3.58;2.93;;;;;;;42.66;17.22;97450.95;129342;1092;61140;-62
2021/07/23 08:54:43;;;;;;;3.75;2.73;;;;;;;42.49;17.26;97455.58;129345;1092;61487;-61
2021/07/23 08:57:10;;;;;;;3.53;3.10;;;;;;;42.24;17.38;97452.40;129296;1092;61288;-61
2021/07/23 08:59:37;;;;;;;3.60;2.70;;;;;;;41.81;17.77;97449.41;127945;1092;62680;-61
2021/07/23 09:02:06;;;;;;;3.43;3.07;;;;;;;41.14;18.33;97444.63;126856;1092;63099;-62
2021/07/23 09:04:53;;;;;;;3.10;2.75;;;;;;;40.19;19.06;97438.89;126864;1092;62620;-63
2021/07/23 09:07:23;;;;;;;3.48;2.58;;;;;;;39.10;19.95;97440.87;126882;1092;62715;-61
2021/07/23 09:09:53;;;;;;;3.78;2.88;;;;;;;38.20;20.58;97436.22;129319;1092;61141;-64
2021/07/23 09:12:21;;;;;;;3.75;2.80;;;;;;;37.41;21.53;97436.36;129301;1092;61277;-62
2021/07/23 09:14:48;;;;;;;3.90;2.80;;;;;;;36.73;21.95;97430.72;128223;1092;62623;-61
2021/07/23 09:17:16;;;;;;;3.37;2.90;;;;;;;36.08;22.62;97429.83;126956;1092;63028;-62
2021/07/23 09:19:43;;;;;;;3.77;3.37;;;;;;;35.49;23.42;97433.10;126891;1092;62648;-62
2021/07/23 09:22:11;;;;;;;3.20;2.60;;;;;;;34.93;23.98;97433.77;126914;1092;62674;-61
2021/07/23 09:24:51;;;;;;;3.30;2.77;;;;;;;34.42;23.95;97428.94;126974;1092;62602;-61
2021/07/23 09:27:35;;;;;;;4.40;3.00;;;;;;;33.91;24.65;97420.48;126875;1092;62677;-62
2021/07/23 09:30:21;;;;;;;3.55;2.85;;;;;;;33.47;25.29;97421.80;126887;1092;62708;-61
2021/07/23 09:32:48;;;;;;;3.53;2.97;;;;;;;33.05;26.11;97422.44;126859;1092;62767;-64
2021/07/23 09:35:15;;;;;;;4.00;3.00;;;;;;;32.71;26.36;97422.59;126761;1095;62600;-62
2021/07/23 09:37:55;;;;;;;4.17;3.00;;;;;;;32.39;26.99;97419.76;126844;1092;62689;-62
2021/07/23 09:40:23;;;;;;;3.80;3.10;;;;;;;32.07;27.50;97411.45;126720;1092;62738;-62
2021/07/23 09:42:59;;;;;;;5.35;3.15;;;;;;;31.81;27.89;97416.48;126758;1092;62671;-62
2021/07/23 09:45:30;;;;;;;5.15;4.15;;;;;;;31.56;28.26;97413.36;126792;1095;62859;-62
2021/07/23 09:48:11;;;;;;;4.80;3.50;;;;;;;31.32;28.44;97407.30;126758;1095;62633;-62
2021/07/23 09:50:48;;;;;;;4.30;3.57;;;;;;;31.11;28.83;97414.22;126880;1092;62664;-62
2021/07/23 09:53:20;;;;;;;3.83;3.43;;;;;;;30.91;29.20;97410.06;126987;1092;62684;-61
2021/07/23 09:55:47;;;;;;;4.77;3.30;;;;;;;30.76;29.39;97417.88;126830;1092;62614;-62
2021/07/23 09:58:21;;;;;;;3.85;2.95;;;;;;;30.61;29.65;97415.67;126850;1092;62744;-61
2021/07/23 10:00:55;;;;;;;3.83;3.43;;;;;;;30.47;29.95;97408.09;126933;1092;62611;-62
2021/07/23 10:03:28;;;;;;;3.30;3.00;;;;;;;30.36;30.18;97401.66;126960;1092;62636;-62
2021/07/23 10:06:02;;;;;;;5.00;3.20;;;;;;;30.27;30.49;97406.59;126939;1092;62590;-60
2021/07/23 10:08:32;;;;;;;4.23;3.00;;;;;;;30.19;30.53;97406.98;126823;1092;62607;-62
2021/07/23 10:11:02;;;;;;;4.03;3.40;;;;;;;30.13;30.81;97402.48;126960;1092;62565;-63
2021/07/23 10:13:30;;;;;;;4.15;3.00;;;;;;;30.06;30.78;97397.23;126942;1092;62614;-62
2021/07/23 10:15:57;;;;;;;3.43;2.97;;;;;;;30.00;31.02;97402.73;126877;1092;62687;-62
2021/07/23 10:18:24;;;;;;;3.73;3.07;;;;;;;29.94;31.02;97399.92;126861;1095;62577;-63
2021/07/23 10:20:51;;;;;;;4.63;3.00;;;;;;;29.87;31.30;97399.23;126831;1092;62657;-65
2021/07/23 10:23:20;;;;;;;4.10;3.10;;;;;;;29.81;31.49;97386.72;126948;1092;62678;-62
2021/07/23 10:25:52;;;;;;;3.50;2.87;;;;;;;29.75;31.50;97384.13;126902;1092;62565;-62
2021/07/23 10:28:38;;;;;;;3.90;3.23;;;;;;;29.70;31.61;97381.31;127017;1092;62608;-62
2021/07/23 10:31:25;;;;;;;3.30;2.90;;;;;;;29.64;32.06;97380.39;126843;1092;62633;-63
2021/07/23 10:33:53;;;;;;;3.03;2.73;;;;;;;29.59;32.12;97380.27;126881;1092;62707;-61
2021/07/23 10:36:26;;;;;;;;;;;;;;;29.53;32.38;97375.77;126897;1092;62642;-62
2021/07/23 10:39:06;;;;;;;4.20;3.20;;;;;;;29.49;31.90;97369.20;126869;1092;62600;-65
2021/07/23 10:41:39;;;;;;;4.67;3.13;;;;;;;29.41;32.39;97365.82;126902;1092;62635;-62
2021/07/23 10:44:31;;;;;;;4.00;3.30;;;;;;;29.35;32.21;97372.14;127043;1092;62662;-63
2021/07/23 10:46:59;;;;;;;3.37;2.93;;;;;;;29.31;32.26;97370.96;126699;1092;62635;-62
2021/07/23 10:49:30;;;;;;;3.80;3.07;;;;;;;29.30;32.68;97366.61;126985;1092;63050;-62
2021/07/23 10:52:01;;;;;;;4.25;3.30;;;;;;;29.30;32.51;97368.48;126951;1092;62585;-62
2021/07/23 10:54:31;;;;;;;4.07;3.00;;;;;;;29.30;32.80;97371.98;126904;1092;62620;-61
2021/07/23 10:57:01;;;;;;;3.73;3.00;;;;;;;29.29;32.73;97364.97;126832;1092;62566;-61
2021/07/23 10:59:41;;;;;;;3.87;2.80;;;;;;;29.27;32.70;97368.97;126967;1092;62652;-63
2021/07/23 11:02:10;;;;;;;3.45;3.00;;;;;;;29.27;32.77;97361.70;126824;1095;62655;-62
2021/07/23 11:04:41;;;;;;;3.60;3.10;;;;;;;29.29;32.73;97356.08;126914;1092;62622;-62
2021/07/23 11:07:09;;;;;;;3.85;3.15;;;;;;;29.31;32.68;97359.38;126878;1092;62633;-63
2021/07/23 11:09:37;;;;;;;3.15;2.63;;;;;;;29.34;32.62;97357.02;127029;1092;62658;-62
2021/07/23 11:12:20;;;;;;;3.33;2.77;;;;;;;29.37;32.73;97356.56;126914;1092;62623;-62
2021/07/23 11:15:07;;;;;;;3.20;2.90;;;;;;;29.40;32.70;97356.11;126938;1092;62652;-62
2021/07/23 11:17:54;;;;;;;3.70;2.90;;;;;;;29.45;32.77;97357.28;126962;1092;62623;-63
2021/07/23 11:20:22;;;;;;;3.00;2.70;;;;;;;29.48;32.48;97362.19;126947;1092;62630;-62
2021/07/23 11:22:51;;;;;;;3.77;3.03;;;;;;;29.50;32.65;97354.71;126899;1092;62582;-63
2021/07/23 11:25:19;;;;;;;3.83;2.87;;;;;;;29.52;32.75;97360.67;126912;1092;62688;-63
2021/07/23 11:27:50;;;;;;;3.40;2.77;;;;;;;29.50;32.59;97350.14;126985;1092;62617;-62
2021/07/23 11:30:26;;;;;;;3.30;2.75;;;;;;;29.51;32.36;97354.47;126923;1092;61752;-62
2021/07/23 11:32:59;;;;;;;3.33;2.80;;;;;;;29.49;32.55;97353.05;126829;1095;62616;-62
2021/07/23 11:35:27;;;;;;;3.33;2.83;;;;;;;29.47;32.53;97349.78;126905;1092;62620;-62
2021/07/23 11:37:55;;;;;;;3.60;2.83;;;;;;;29.45;32.68;97349.21;126934;1092;62617;-62